Time;durP1;ratioP1;P1;durP2;ratioP2;P2;SDS_P1;SDS_P2;PMS_P1;PMS_P2;Temp;Humidity;BMP_temperature;BMP_pressure;BME280_temperature;BME280_humidity;BME280_pressure;Samples;Min_cycle;Max_cycle;Signal;HPM_P1;HPM_P2
2022/11/29 00:00:32;;;;;;;75.30;54.47;;;14.40;73.00;;;;;;4989196;28;93037;-50
2022/11/29 00:02:58;;;;;;;75.18;53.95;;;14.40;72.70;;;;;;4978118;27;91661;-50
2022/11/29 00:05:24;;;;;;;74.90;53.45;;;14.40;72.70;;;;;;4988021;28;90158;-49
2022/11/29 00:07:50;;;;;;;73.82;53.83;;;14.40;73.40;;;;;;4985634;27;90394;-50
2022/11/29 00:10:15;;;;;;;75.20;53.78;;;14.30;72.50;;;;;;4992010;28;90030;-51
2022/11/29 00:12:41;;;;;;;74.88;53.53;;;14.40;72.70;;;;;;4986979;28;90625;-50
2022/11/29 00:15:07;;;;;;;74.70;53.03;;;14.40;72.50;;;;;;4978991;28;91421;-52
2022/11/29 00:17:33;;;;;;;77.20;54.08;;;14.30;72.50;;;;;;4996280;28;89724;-49
2022/11/29 00:19:58;;;;;;;76.30;53.85;;;14.30;72.40;;;;;;4992121;28;89624;-50
2022/11/29 00:22:24;;;;;;;73.50;53.25;;;14.30;72.20;;;;;;4984138;28;91192;-53
2022/11/29 00:24:50;;;;;;;76.50;54.25;;;14.30;72.40;;;;;;4984408;28;93023;-52
2022/11/29 00:27:16;;;;;;;73.07;53.30;;;14.30;72.60;;;;;;4990978;28;90703;-53
2022/11/29 00:29:42;;;;;;;73.40;53.20;;;14.30;72.40;;;;;;4973379;28;92779;-52
2022/11/29 00:32:08;;;;;;;73.65;53.55;;;14.20;72.50;;;;;;4988682;28;88794;-51
2022/11/29 00:34:33;;;;;;;73.70;53.28;;;14.20;72.50;;;;;;4985596;28;90284;-50
2022/11/29 00:36:59;;;;;;;73.82;53.08;;;14.20;72.50;;;;;;4987377;27;89580;-52
2022/11/29 00:39:25;;;;;;;72.72;52.83;;;14.20;72.40;;;;;;4981876;28;90559;-52
2022/11/29 00:41:50;;;;;;;72.85;53.65;;;14.20;72.50;;;;;;4987105;28;91798;-49
2022/11/29 00:44:16;;;;;;;75.38;53.60;;;14.20;72.50;;;;;;4986664;27;92092;-51
2022/11/29 00:46:41;;;;;;;73.03;53.20;;;14.20;72.40;;;;;;4984407;28;89891;-51
2022/11/29 00:49:07;;;;;;;74.40;53.92;;;14.20;72.40;;;;;;4980248;28;90636;-49
2022/11/29 00:51:33;;;;;;;73.50;52.72;;;14.20;72.30;;;;;;4987139;28;90455;-50
2022/11/29 00:53:58;;;;;;;73.72;52.90;;;14.20;72.20;;;;;;4979942;28;89512;-52
2022/11/29 00:56:24;;;;;;;73.32;53.03;;;14.20;72.10;;;;;;4986798;28;89218;-48
2022/11/29 00:58:50;;;;;;;74.70;53.67;;;14.20;72.20;;;;;;4977132;28;91323;-48
2022/11/29 01:01:16;;;;;;;71.57;53.13;;;14.20;72.30;;;;;;4985360;28;90326;-52
2022/11/29 01:03:41;;;;;;;73.20;52.78;;;14.20;72.10;;;;;;4983077;28;94723;-52
2022/11/29 01:06:10;;;;;;;72.45;52.75;;;14.20;72.30;;;;;;4988120;28;93364;-52
2022/11/29 01:08:36;;;;;;;71.93;52.78;;;14.10;72.20;;;;;;4984822;28;95552;-53
2022/11/29 01:11:09;;;;;;;72.00;53.25;;;14.10;72.10;;;;;;4982585;28;90319;-52
2022/11/29 01:13:35;;;;;;;70.55;52.20;;;14.10;72.10;;;;;;4991624;28;92513;-50
2022/11/29 01:16:02;;;;;;;71.63;52.70;;;14.10;72.10;;;;;;4986950;28;90732;-52
2022/11/29 01:18:29;;;;;;;71.13;53.05;;;14.10;72.10;;;;;;4987343;28;91527;-50
2022/11/29 01:21:01;;;;;;;73.32;52.95;;;14.10;71.90;;;;;;4983384;28;89615;-52
2022/11/29 01:23:27;;;;;;;73.50;53.35;;;14.10;71.90;;;;;;4984207;28;91350;-48
2022/11/29 01:25:58;;;;;;;71.82;52.70;;;14.10;71.90;;;;;;4982935;28;92860;-51
2022/11/29 01:28:24;;;;;;;71.70;52.45;;;14.10;72.00;;;;;;4983583;28;91108;-52
2022/11/29 01:30:49;;;;;;;73.00;53.55;;;14.00;72.00;;;;;;4986648;28;90914;-50
2022/11/29 01:33:15;;;;;;;72.18;53.10;;;14.10;72.10;;;;;;4985913;28;89885;-50
2022/11/29 01:35:47;;;;;;;72.18;52.25;;;14.00;72.10;;;;;;4980028;28;90692;-53
2022/11/29 01:38:12;;;;;;;;;;;14.10;72.00;;;;;;4979695;28;91644;-51
2022/11/29 01:40:38;;;;;;;69.55;52.38;;;14.10;72.00;;;;;;4986153;28;89615;-49
2022/11/29 01:43:13;;;;;;;70.68;52.30;;;14.10;72.70;;;;;;4997087;27;90506;-49
2022/11/29 01:45:39;;;;;;;71.30;53.08;;;14.00;71.60;;;;;;4992061;28;89923;-49
2022/11/29 01:48:05;;;;;;;70.93;52.65;;;14.00;71.80;;;;;;4994643;28;92375;-51
2022/11/29 01:50:31;;;;;;;70.45;52.55;;;14.10;71.90;;;;;;4972152;28;92828;-54
2022/11/29 01:52:58;;;;;;;71.85;52.63;;;14.00;71.60;;;;;;4983731;28;92688;-53
2022/11/29 01:55:24;;;;;;;71.45;52.38;;;14.10;71.60;;;;;;4994264;28;91429;-50
2022/11/29 01:57:50;;;;;;;70.75;52.38;;;14.10;71.60;;;;;;4985656;27;89807;-51
2022/11/29 02:00:18;;;;;;;70.50;53.00;;;14.00;71.50;;;;;;4976264;28;90275;-51
2022/11/29 02:02:57;;;;;;;71.65;51.92;;;14.00;71.30;;;;;;4981302;27;90624;-49
2022/11/29 02:05:24;;;;;;;71.38;52.75;;;14.00;71.50;;;;;;4934663;28;1243857;-54
2022/11/29 02:07:52;;;;;;;70.55;52.13;;;14.00;71.60;;;;;;4983950;28;90634;-48
2022/11/29 02:10:19;;;;;;;69.90;52.13;;;14.00;71.40;;;;;;4997362;27;89775;-50
2022/11/29 02:12:59;;;;;;;69.95;52.22;;;14.00;71.50;;;;;;4987492;28;90407;-51
2022/11/29 02:15:45;;;;;;;69.70;51.97;;;14.00;71.50;;;;;;4983733;28;90441;-51
2022/11/29 02:18:14;;;;;;;68.53;51.30;;;14.00;71.50;;;;;;4989701;28;91273;-51
2022/11/29 02:20:48;;;;;;;69.90;52.10;;;14.00;71.60;;;;;;4985553;28;91006;-49
2022/11/29 02:23:48;;;;;;;68.65;52.13;;;14.00;71.40;;;;;;4985275;28;93461;-52
2022/11/29 02:26:31;;;;;;;68.13;51.30;;;14.00;71.30;;;;;;4990969;28;89839;-54
2022/11/29 02:29:28;;;;;;;69.50;52.08;;;14.00;71.10;;;;;;4979853;28;89740;-49
2022/11/29 02:32:31;;;;;;;68.63;51.78;;;14.00;71.20;;;;;;4978234;28;92693;-48
2022/11/29 02:35:06;;;;;;;68.32;51.90;;;14.00;71.20;;;;;;4984280;28;90924;-48
2022/11/29 02:38:07;;;;;;;68.80;51.08;;;13.90;71.20;;;;;;4988054;27;89817;-50
2022/11/29 02:40:51;;;;;;;68.82;51.95;;;13.90;71.30;;;;;;4988892;28;90086;-49
2022/11/29 02:43:45;;;;;;;68.65;51.97;;;13.90;71.40;;;;;;4991840;28;91012;-50
2022/11/29 02:46:29;;;;;;;68.70;51.75;;;13.90;71.30;;;;;;4978599;28;91936;-49
2022/11/29 02:49:11;;;;;;;68.35;51.20;;;13.90;71.40;;;;;;4991076;28;89737;-51
2022/11/29 02:51:55;;;;;;;68.47;51.15;;;13.90;71.20;;;;;;4978911;28;89942;-53
2022/11/29 02:54:46;;;;;;;69.18;51.60;;;13.90;71.40;;;;;;4987686;28;90177;-52
2022/11/29 02:57:49;;;;;;;70.68;51.95;;;13.90;71.30;;;;;;4986697;28;89933;-49
2022/11/29 03:00:19;;;;;;;69.72;52.05;;;13.80;71.30;;;;;;4991182;27;89897;-49
2022/11/29 03:03:07;;;;;;;69.18;52.05;;;13.90;71.10;;;;;;4988057;28;90232;-50
2022/11/29 03:06:05;;;;;;;68.43;51.97;;;13.80;71.00;;;;;;4985568;27;93375;-51
2022/11/29 03:08:45;;;;;;;68.05;51.88;;;13.80;71.10;;;;;;4991881;28;95131;-51
2022/11/29 03:11:31;;;;;;;67.57;51.08;;;13.80;71.30;;;;;;4987529;28;90878;-50
2022/11/29 03:14:03;;;;;;;68.55;51.33;;;13.80;71.20;;;;;;4985636;28;91769;-53
2022/11/29 03:16:34;;;;;;;;;;;13.80;71.10;;;;;;4982123;28;93171;-52
2022/11/29 03:19:37;;;;;;;68.13;51.65;;;13.80;71.30;;;;;;4979696;28;90407;-52
2022/11/29 03:22:21;;;;;;;68.10;51.53;;;13.80;71.20;;;;;;4977495;28;91330;-49
2022/11/29 03:25:02;;;;;;;68.40;50.85;;;13.80;71.20;;;;;;4982933;28;91822;-49
2022/11/29 03:27:45;;;;;;;67.95;51.33;;;13.80;71.20;;;;;;4984087;28;90989;-51
2022/11/29 03:30:13;;;;;;;67.30;50.83;;;13.80;71.20;;;;;;4975564;28;92197;-47
2022/11/29 03:32:44;;;;;;;68.45;50.97;;;13.80;71.10;;;;;;4980022;28;90641;-49
2022/11/29 03:35:28;;;;;;;67.97;51.25;;;13.80;71.00;;;;;;4980636;28;90230;-51
2022/11/29 03:38:07;;;;;;;69.50;51.00;;;13.70;71.00;;;;;;4985517;28;93397;-51
2022/11/29 03:40:57;;;;;;;69.30;51.45;;;13.70;71.10;;;;;;4983234;27;91248;-50
2022/11/29 03:43:35;;;;;;;68.03;51.38;;;13.70;71.00;;;;;;4981323;28;89840;-51
2022/11/29 03:46:10;;;;;;;68.72;51.67;;;13.70;70.90;;;;;;4974394;28;90617;-52
2022/11/29 03:48:43;;;;;;;67.97;51.17;;;13.70;70.80;;;;;;4978195;28;95163;-49
2022/11/29 03:51:23;;;;;;;68.20;51.63;;;13.70;70.90;;;;;;4975171;28;92456;-50
2022/11/29 03:54:02;;;;;;;67.72;51.65;;;13.70;70.80;;;;;;4974174;28;90644;-52
2022/11/29 03:56:33;;;;;;;67.88;51.22;;;13.70;70.90;;;;;;4977028;28;90868;-48
2022/11/29 03:59:06;;;;;;;68.07;51.45;;;13.70;70.90;;;;;;4982246;28;96947;-51
2022/11/29 04:02:09;;;;;;;68.45;51.42;;;13.70;70.80;;;;;;4979563;28;92177;-48
2022/11/29 04:04:54;;;;;;;68.07;51.47;;;13.70;70.80;;;;;;4982876;28;91586;-52
2022/11/29 04:07:41;;;;;;;67.28;51.17;;;13.70;70.80;;;;;;4977553;28;92621;-54
2022/11/29 04:10:09;;;;;;;67.32;50.70;;;13.70;70.70;;;;;;4980232;28;92019;-52
2022/11/29 04:12:50;;;;;;;67.15;51.10;;;13.70;70.60;;;;;;4972927;28;91489;-49
2022/11/29 04:15:39;;;;;;;67.30;50.67;;;13.70;70.70;;;;;;4978815;28;91057;-50
2022/11/29 04:18:30;;;;;;;67.40;51.20;;;13.70;70.60;;;;;;4977349;28;91021;-52
2022/11/29 04:21:27;;;;;;;68.57;50.83;;;13.70;70.60;;;;;;4979976;28;89560;-48
2022/11/29 04:24:08;;;;;;;67.47;51.15;;;13.70;70.50;;;;;;4983232;28;91250;-51
2022/11/29 04:27:15;;;;;;;67.72;51.08;;;13.70;70.30;;;;;;4974605;28;90395;-48
2022/11/29 04:30:02;;;;;;;68.45;51.00;;;13.70;70.50;;;;;;4969742;27;93113;-50
2022/11/29 04:32:59;;;;;;;66.18;50.85;;;13.70;70.50;;;;;;4987100;28;91575;-50
2022/11/29 04:35:47;;;;;;;66.38;50.35;;;13.70;70.40;;;;;;4981776;28;92093;-49
2022/11/29 04:38:52;;;;;;;66.80;50.63;;;13.70;70.50;;;;;;4981042;28;89726;-52
2022/11/29 04:41:36;;;;;;;66.97;50.95;;;13.70;70.30;;;;;;4980061;28;90232;-48
2022/11/29 04:44:15;;;;;;;66.55;51.10;;;13.70;70.40;;;;;;4985438;28;92693;-50
2022/11/29 04:46:43;;;;;;;66.95;50.97;;;13.70;70.40;;;;;;4976830;28;90348;-50
2022/11/29 04:49:18;;;;;;;67.70;51.00;;;13.60;70.30;;;;;;4977385;28;90641;-48
2022/11/29 04:52:07;;;;;;;68.32;51.08;;;13.60;70.30;;;;;;4978575;27;89836;-52
2022/11/29 04:54:54;;;;;;;68.82;51.85;;;13.60;70.40;;;;;;4981952;28;89693;-50
2022/11/29 04:57:38;;;;;;;66.68;50.97;;;13.60;70.30;;;;;;4983639;28;91852;-50
2022/11/29 05:00:16;;;;;;;68.07;51.53;;;13.60;70.30;;;;;;4988211;28;89968;-48
2022/11/29 05:02:55;;;;;;;66.53;50.50;;;13.70;70.30;;;;;;4982315;28;91399;-49
2022/11/29 05:05:45;;;;;;;67.75;51.10;;;13.60;70.50;;;;;;4978156;28;92179;-49
2022/11/29 05:08:37;;;;;;;66.18;50.55;;;13.60;70.30;;;;;;4987052;28;90339;-48
2022/11/29 05:11:33;;;;;;;66.88;50.40;;;13.70;70.20;;;;;;4990717;27;94747;-50
2022/11/29 05:14:33;;;;;;;66.80;50.17;;;13.60;70.40;;;;;;4980640;28;92500;-49
2022/11/29 05:17:37;;;;;;;67.60;50.97;;;13.60;70.30;;;;;;4991935;28;93499;-50
2022/11/29 05:20:30;;;;;;;68.00;51.15;;;13.60;70.20;;;;;;5001425;28;89718;-50
2022/11/29 05:23:18;;;;;;;67.63;50.70;;;13.60;70.30;;;;;;4985501;28;92324;-53
2022/11/29 05:26:19;;;;;;;66.72;50.97;;;13.60;70.20;;;;;;4987959;28;89967;-49
2022/11/29 05:29:00;;;;;;;66.72;50.50;;;13.60;70.30;;;;;;4995567;28;90098;-51
2022/11/29 05:31:39;;;;;;;66.88;50.70;;;13.60;70.30;;;;;;4984382;28;92519;-48
2022/11/29 05:34:19;;;;;;;67.78;51.08;;;13.60;70.20;;;;;;4984826;28;90838;-53
2022/11/29 05:36:56;;;;;;;66.95;51.22;;;13.60;70.20;;;;;;4984228;27;90112;-51
2022/11/29 05:39:43;;;;;;;66.97;51.03;;;13.70;70.20;;;;;;4978754;28;90507;-48
2022/11/29 05:42:37;;;;;;;66.13;50.80;;;13.70;70.10;;;;;;4980674;28;90637;-50
2022/11/29 05:45:13;;;;;;;66.72;50.80;;;13.60;70.20;;;;;;4971075;28;89955;-50
2022/11/29 05:47:47;;;;;;;67.47;50.97;;;13.60;70.20;;;;;;4980099;28;91948;-53
2022/11/29 05:50:36;;;;;;;71.80;51.15;;;13.60;70.20;;;;;;4980144;28;91306;-49
2022/11/29 05:53:54;;;;;;;66.75;50.17;;;13.60;70.60;;;;;;4991425;28;89399;-49
2022/11/29 05:56:35;;;;;;;69.60;50.75;;;13.50;70.90;;;;;;4974436;28;95415;-51
2022/11/29 05:59:08;;;;;;;67.82;51.00;;;13.50;71.30;;;;;;4981012;28;91705;-52
2022/11/29 06:01:42;;;;;;;75.38;51.05;;;13.50;71.70;;;;;;4987679;28;90160;-49
2022/11/29 06:04:32;;;;;;;70.55;51.65;;;13.50;72.10;;;;;;4984285;28;92625;-52
2022/11/29 06:07:10;;;;;;;72.00;51.60;;;13.50;72.80;;;;;;4976787;28;90220;-52
2022/11/29 06:09:52;;;;;;;68.88;51.42;;;13.40;72.40;;;;;;4979760;28;92443;-50
2022/11/29 06:12:22;;;;;;;69.15;51.65;;;13.40;72.60;;;;;;4973363;27;89707;-50
2022/11/29 06:15:00;;;;;;;69.25;51.63;;;13.30;73.10;;;;;;4977903;28;91377;-49
2022/11/29 06:17:44;;;;;;;68.50;50.92;;;13.30;73.40;;;;;;4980722;28;90332;-50
2022/11/29 06:20:28;;;;;;;69.28;51.60;;;13.30;73.40;;;;;;4991556;28;92574;-50
2022/11/29 06:23:23;;;;;;;70.00;51.97;;;13.40;73.60;;;;;;4990539;27;89798;-48
2022/11/29 06:26:10;;;;;;;71.57;52.10;;;13.40;73.50;;;;;;4986092;27;90656;-50
2022/11/29 06:29:14;;;;;;;73.55;51.42;;;13.40;73.70;;;;;;4982273;28;90187;-49
2022/11/29 06:31:44;;;;;;;74.30;52.10;;;13.40;74.00;;;;;;4973798;28;92111;-51
2022/11/29 06:34:34;;;;;;;68.78;51.47;;;13.40;74.20;;;;;;4983786;27;90984;-49
2022/11/29 06:37:12;;;;;;;77.15;52.72;;;13.30;74.10;;;;;;4986466;27;89747;-49
2022/11/29 06:39:38;;;;;;;83.97;54.50;;;13.30;74.40;;;;;;4983361;28;89861;-52
2022/11/29 06:42:03;;;;;;;81.30;54.97;;;13.40;75.30;;;;;;4977564;28;91818;-52
2022/11/29 06:44:29;;;;;;;100.93;56.95;;;13.40;75.30;;;;;;4964931;27;91060;-49
2022/11/29 06:47:12;;;;;;;88.20;56.88;;;13.30;75.20;;;;;;4972226;28;91334;-49
2022/11/29 06:49:40;;;;;;;88.78;57.08;;;13.40;75.10;;;;;;4975905;28;89802;-49
2022/11/29 06:52:15;;;;;;;97.53;60.13;;;13.30;75.20;;;;;;4988398;27;90443;-50
2022/11/29 06:55:19;;;;;;;100.53;61.25;;;13.40;75.90;;;;;;4970812;28;90661;-51
2022/11/29 06:58:08;;;;;;;98.35;61.05;;;13.40;75.10;;;;;;4974283;28;89867;-53
2022/11/29 07:00:55;;;;;;;102.10;62.40;;;13.50;75.20;;;;;;4975810;28;91055;-48
2022/11/29 07:03:42;;;;;;;118.60;65.28;;;13.60;75.30;;;;;;4981638;27;95115;-48
2022/11/29 07:06:19;;;;;;;120.57;66.47;;;13.60;75.60;;;;;;4985864;28;89892;-51
2022/11/29 07:08:46;;;;;;;120.00;66.00;;;13.90;74.90;;;;;;4978739;27;91105;-51
2022/11/29 07:11:13;;;;;;;124.13;67.78;;;13.90;74.30;;;;;;4977055;28;91455;-47
2022/11/29 07:13:39;;;;;;;121.85;65.95;;;14.00;73.30;;;;;;4977303;28;89577;-51
2022/11/29 07:16:37;;;;;;;111.60;65.13;;;14.00;73.60;;;;;;5002108;28;91008;-49
2022/11/29 07:19:26;;;;;;;111.90;64.35;;;14.10;73.30;;;;;;4991993;27;93184;-48
2022/11/29 07:22:13;;;;;;;121.88;66.18;;;14.10;72.80;;;;;;4982918;28;90731;-46
2022/11/29 07:24:54;;;;;;;115.55;65.88;;;14.20;72.80;;;;;;4974895;28;91088;-47
2022/11/29 07:28:01;;;;;;;119.47;67.25;;;14.10;73.40;;;;;;4980731;28;89439;-47
2022/11/29 07:30:44;;;;;;;119.65;67.53;;;14.10;74.20;;;;;;4977173;28;93803;-47
2022/11/29 07:33:40;;;;;;;120.90;66.10;;;14.10;74.40;;;;;;4976154;28;91672;-45
2022/11/29 07:36:19;;;;;;;117.43;66.90;;;14.10;74.60;;;;;;4977512;28;90209;-49
2022/11/29 07:39:13;;;;;;;113.80;66.05;;;14.20;73.70;;;;;;4974959;28;89831;-52
2022/11/29 07:41:50;;;;;;;109.22;64.30;;;14.20;73.50;;;;;;4972914;27;91589;-51
2022/11/29 07:44:42;;;;;;;104.68;63.72;;;14.10;73.40;;;;;;4987063;28;92492;-47
2022/11/29 07:47:08;;;;;;;102.72;62.92;;;14.10;73.40;;;;;;4986863;28;92856;-49
2022/11/29 07:49:34;;;;;;;102.18;62.70;;;14.10;73.10;;;;;;4978011;28;92200;-50
2022/11/29 07:51:59;;;;;;;96.88;61.05;;;14.10;72.80;;;;;;4982559;28;90785;-50
2022/11/29 07:54:25;;;;;;;106.65;63.65;;;14.10;72.80;;;;;;4974856;28;91587;-48
2022/11/29 07:56:51;;;;;;;108.63;62.00;;;14.10;72.90;;;;;;4987012;28;91384;-50
2022/11/29 07:59:17;;;;;;;104.85;63.55;;;14.10;72.80;;;;;;4978146;28;90178;-50
2022/11/29 08:01:42;;;;;;;97.22;60.75;;;14.10;72.60;;;;;;4975834;28;92306;-50
2022/11/29 08:04:08;;;;;;;101.47;60.40;;;14.10;72.60;;;;;;4978492;28;89339;-49
2022/11/29 08:06:35;;;;;;;97.32;62.17;;;14.10;72.50;;;;;;4977481;28;90690;-49
2022/11/29 08:09:01;;;;;;;97.75;60.92;;;14.10;72.80;;;;;;4976855;28;91314;-46
2022/11/29 08:11:27;;;;;;;93.97;59.63;;;14.10;72.50;;;;;;4977484;28;90666;-49
2022/11/29 08:14:00;;;;;;;100.15;60.47;;;14.10;72.50;;;;;;4983500;28;89801;-51
2022/11/29 08:16:26;;;;;;;97.32;60.75;;;14.10;72.60;;;;;;4986136;28;90917;-47
2022/11/29 08:18:51;;;;;;;95.68;60.10;;;14.10;72.80;;;;;;4977456;28;91585;-48
2022/11/29 08:21:17;;;;;;;95.40;60.53;;;14.10;72.80;;;;;;4968147;28;95354;-45
2022/11/29 08:23:44;;;;;;;99.05;60.67;;;14.10;72.80;;;;;;4978037;28;92506;-50
2022/11/29 08:26:10;;;;;;;101.25;60.92;;;14.10;72.70;;;;;;4975019;28;89952;-47
2022/11/29 08:28:36;;;;;;;110.03;60.80;;;14.10;72.40;;;;;;4966992;28;91137;-45
2022/11/29 08:31:04;;;;;;;113.13;62.88;;;14.10;72.40;;;;;;4975424;28;93986;-48
2022/11/29 08:33:30;;;;;;;103.00;61.47;;;14.10;73.00;;;;;;4986543;28;90454;-48
2022/11/29 08:36:02;;;;;;;100.00;60.92;;;14.10;73.50;;;;;;4981666;28;90880;-48
2022/11/29 08:38:27;;;;;;;97.13;59.78;;;14.10;73.30;;;;;;4985029;28;90995;-50
2022/11/29 08:40:53;;;;;;;98.03;59.75;;;14.10;72.70;;;;;;4969607;28;90633;-48
2022/11/29 08:43:19;;;;;;;95.45;59.53;;;14.20;73.10;;;;;;4984517;28;90166;-45
2022/11/29 08:45:50;;;;;;;97.28;59.25;;;14.10;72.80;;;;;;4991677;28;91137;-51
2022/11/29 08:48:15;;;;;;;96.93;59.80;;;14.10;74.20;;;;;;4985280;28;89728;-46
2022/11/29 08:50:41;;;;;;;96.60;59.65;;;14.10;74.30;;;;;;4981618;28;91631;-49
2022/11/29 08:55:52;;;;;;;96.88;59.90;;;14.20;74.40;;;;;;4992499;28;90007;-51
2022/11/29 08:58:20;;;;;;;102.18;59.80;;;14.20;74.00;;;;;;4985628;28;90087;-52
2022/11/29 09:00:46;;;;;;;112.40;62.13;;;14.20;74.10;;;;;;4972749;27;93825;-48
2022/11/29 09:05:56;;;;;;;106.43;60.80;;;14.20;74.30;;;;;;4982041;28;90186;-48
2022/11/29 09:08:22;;;;;;;101.30;59.47;;;14.30;74.00;;;;;;4975030;28;92943;-48
2022/11/29 09:10:48;;;;;;;98.75;59.40;;;14.30;73.70;;;;;;4981845;28;90642;-47
2022/11/29 09:13:14;;;;;;;103.68;59.78;;;14.30;73.40;;;;;;4993861;28;90146;-47
2022/11/29 09:15:42;;;;;;;100.00;59.90;;;14.30;73.40;;;;;;4984479;28;89924;-48
2022/11/29 09:18:08;;;;;;;100.90;58.88;;;14.30;73.30;;;;;;4987013;28;89559;-47
2022/11/29 09:20:34;;;;;;;101.28;59.17;;;14.30;73.00;;;;;;4984167;28;91130;-49
2022/11/29 09:23:00;;;;;;;105.95;60.55;;;14.30;72.90;;;;;;4972847;28;90026;-47
2022/11/29 09:25:26;;;;;;;99.93;58.95;;;14.30;72.70;;;;;;4982162;28;95400;-48
2022/11/29 09:27:52;;;;;;;104.82;59.65;;;14.30;72.70;;;;;;4981862;27;94161;-46
2022/11/29 09:30:18;;;;;;;104.45;59.28;;;14.30;72.70;;;;;;4973697;27;90064;-47
2022/11/29 09:32:45;;;;;;;100.20;59.22;;;14.30;72.50;;;;;;4982459;28;92588;-49
2022/11/29 09:35:11;;;;;;;102.10;58.92;;;14.40;72.50;;;;;;4977012;28;91607;-53
2022/11/29 09:37:40;;;;;;;99.93;58.70;;;14.30;71.90;;;;;;4979650;28;90695;-48
2022/11/29 09:40:07;;;;;;;105.53;58.35;;;14.40;72.00;;;;;;4986173;28;90062;-50
2022/11/29 09:42:51;;;;;;;95.40;58.05;;;14.40;72.10;;;;;;4982793;28;97411;-51
2022/11/29 09:45:23;;;;;;;99.00;56.92;;;14.30;72.10;;;;;;4980847;28;90388;-52
2022/11/29 09:48:10;;;;;;;89.32;56.83;;;14.30;72.30;;;;;;4976141;28;92289;-48
2022/11/29 09:51:14;;;;;;;92.38;56.72;;;14.40;72.10;;;;;;4977141;28;90982;-52
2022/11/29 18:23:21;;;;;;;100.43;61.97;;;15.70;71.70;;;;;;4434022;27;1402039;-53
2022/11/29 18:26:01;;;;;;;96.07;60.63;;;15.70;71.20;;;;;;5012355;27;85569;-52
2022/11/29 18:28:27;;;;;;;93.65;60.22;;;15.70;70.90;;;;;;5011932;27;85292;-51
2022/11/29 18:30:55;;;;;;;96.35;61.20;;;15.70;70.90;;;;;;5019315;27;86920;-49
2022/11/29 18:33:21;;;;;;;97.70;60.42;;;15.70;70.90;;;;;;5026111;27;86282;-53
2022/11/29 18:35:46;;;;;;;89.63;60.08;;;15.70;70.70;;;;;;5020793;27;85108;-51
2022/11/29 18:38:12;;;;;;;91.97;59.22;;;15.70;70.50;;;;;;5026707;27;85512;-51
2022/11/29 18:40:43;;;;;;;91.43;59.00;;;15.60;70.30;;;;;;5030973;27;85458;-51
2022/11/29 18:43:09;;;;;;;91.85;60.10;;;15.60;70.30;;;;;;5026908;27;85963;-53
2022/11/29 18:45:36;;;;;;;92.30;59.75;;;15.60;70.00;;;;;;5020648;27;85438;-52
2022/11/29 18:48:02;;;;;;;89.25;59.10;;;15.60;69.90;;;;;;5022346;27;85491;-52
2022/11/29 18:50:29;;;;;;;89.97;58.08;;;15.60;69.90;;;;;;5030191;27;85679;-53
2022/11/29 18:52:58;;;;;;;88.22;58.53;;;15.60;69.60;;;;;;5030746;27;85856;-50
2022/11/29 18:55:25;;;;;;;89.07;59.00;;;15.70;69.60;;;;;;5026223;27;85587;-50
2022/11/29 18:57:52;;;;;;;88.43;58.05;;;15.70;69.60;;;;;;5032968;27;85814;-51
2022/11/29 19:00:18;;;;;;;85.93;57.78;;;15.70;69.50;;;;;;5023446;27;86297;-53
2022/11/29 19:02:44;;;;;;;88.43;58.17;;;15.70;69.20;;;;;;5024015;27;87150;-50
2022/11/29 19:05:10;;;;;;;86.75;58.35;;;15.70;69.30;;;;;;5016463;27;85752;-51
2022/11/29 19:07:35;;;;;;;82.13;57.08;;;15.70;69.40;;;;;;5028630;27;88877;-52
2022/11/29 19:10:01;;;;;;;86.63;57.55;;;15.70;69.20;;;;;;5024080;27;88535;-51
2022/11/29 19:12:27;;;;;;;84.55;57.78;;;15.70;69.30;;;;;;5025193;27;85948;-52
2022/11/29 19:14:53;;;;;;;83.63;57.63;;;15.60;69.10;;;;;;5010136;27;87628;-52
2022/11/29 19:17:18;;;;;;;86.57;58.05;;;15.60;69.20;;;;;;4996804;27;85997;-53
2022/11/29 19:19:44;;;;;;;87.45;58.33;;;15.60;69.20;;;;;;5001282;28;86846;-53
2022/11/29 19:22:10;;;;;;;85.43;57.90;;;15.60;69.10;;;;;;5018984;27;86444;-54
2022/11/29 19:24:35;;;;;;;85.55;57.75;;;15.50;69.20;;;;;;5021543;27;87547;-53
2022/11/29 19:27:03;;;;;;;84.90;57.45;;;15.50;69.00;;;;;;5029039;27;86600;-51
2022/11/29 19:29:29;;;;;;;83.22;57.53;;;15.50;69.30;;;;;;5016486;27;85849;-53
2022/11/29 19:31:55;;;;;;;83.95;56.13;;;15.50;68.90;;;;;;5029435;27;85844;-54
2022/11/29 19:34:20;;;;;;;81.40;56.50;;;15.60;69.00;;;;;;5023343;27;85407;-53
2022/11/29 19:36:46;;;;;;;82.35;57.08;;;15.60;68.70;;;;;;5030838;27;85616;-49
2022/11/29 19:39:14;;;;;;;82.78;57.53;;;15.60;68.60;;;;;;5021223;27;85714;-53
2022/11/29 19:41:42;;;;;;;86.85;58.15;;;15.60;68.80;;;;;;5030815;27;87590;-53
2022/11/29 19:44:07;;;;;;;86.28;57.75;;;15.70;68.60;;;;;;5008206;27;88364;-48
2022/11/29 19:46:36;;;;;;;83.35;56.90;;;15.70;68.40;;;;;;5026349;27;85282;-55
2022/11/29 19:49:04;;;;;;;83.20;57.45;;;15.70;68.50;;;;;;5004901;27;86505;-50
2022/11/29 19:51:30;;;;;;;79.68;56.72;;;15.70;68.40;;;;;;5023745;27;85881;-49
2022/11/29 19:53:58;;;;;;;82.25;57.45;;;15.80;68.30;;;;;;5007809;27;86005;-49
2022/11/29 19:56:24;;;;;;;83.22;57.38;;;15.80;68.40;;;;;;5032431;27;85834;-49
2022/11/29 19:58:50;;;;;;;81.75;56.92;;;15.90;68.20;;;;;;5021655;27;86261;-50
2022/11/29 20:01:21;;;;;;;83.65;57.40;;;15.90;68.70;;;;;;5012449;27;85100;-50
2022/11/29 20:03:48;;;;;;;83.75;57.05;;;15.90;68.30;;;;;;5036123;27;85480;-53
2022/11/29 20:06:14;;;;;;;84.07;56.85;;;15.90;68.20;;;;;;5021860;27;85212;-51
2022/11/29 20:08:41;;;;;;;81.32;57.13;;;15.90;68.30;;;;;;5024101;27;85687;-51
2022/11/29 20:11:13;;;;;;;85.82;57.15;;;15.90;68.40;;;;;;5028860;27;88519;-52
2022/11/29 20:13:39;;;;;;;86.53;57.03;;;15.90;68.40;;;;;;5019188;27;87111;-57
2022/11/29 20:16:12;;;;;;;82.90;56.45;;;15.90;68.90;;;;;;5003412;27;86309;-54
2022/11/29 20:18:40;;;;;;;82.00;56.72;;;15.90;69.40;;;;;;5022168;27;85683;-59
2022/11/29 20:21:11;;;;;;;82.80;57.55;;;16.00;69.60;;;;;;5016188;27;85350;-60
2022/11/29 20:23:39;;;;;;;80.37;56.20;;;15.90;69.70;;;;;;5028579;27;85268;-53
2022/11/29 20:26:57;;;;;;;81.20;56.17;;;16.00;68.90;;;;;;5006176;27;86313;-55
2022/11/29 20:29:29;;;;;;;81.20;56.55;;;15.90;70.00;;;;;;5004309;27;86341;-56
2022/11/29 20:31:55;;;;;;;;;;;15.90;69.80;;;;;;5010061;27;85898;-53
2022/11/29 20:34:20;;;;;;;80.88;56.65;;;15.90;70.00;;;;;;5004833;27;82410;-53
2022/11/29 20:37:12;;;;;;;84.05;56.03;;;16.00;69.90;;;;;;5001829;27;86237;-51
2022/11/29 20:39:38;;;;;;;81.63;56.75;;;15.90;70.30;;;;;;5002011;27;86414;-52
2022/11/29 20:42:27;;;;;;;83.50;57.58;;;15.90;70.00;;;;;;5006206;27;88976;-49
2022/11/29 20:44:54;;;;;;;81.68;57.25;;;15.90;70.10;;;;;;4981324;27;86741;-50
2022/11/29 20:47:22;;;;;;;81.25;57.42;;;15.90;70.00;;;;;;5003333;27;86098;-55
2022/11/29 20:49:49;;;;;;;82.35;57.85;;;16.00;69.80;;;;;;5003164;27;85878;-50
2022/11/29 20:52:33;;;;;;;82.75;57.17;;;16.10;69.50;;;;;;4999984;27;85395;-56
2022/11/29 20:54:59;;;;;;;81.82;57.13;;;16.10;69.20;;;;;;5001246;27;85520;-51
2022/11/29 20:57:25;;;;;;;81.70;57.13;;;16.10;69.20;;;;;;5005401;27;86336;-55
2022/11/29 20:59:50;;;;;;;80.15;56.00;;;16.10;69.00;;;;;;5003503;27;85900;-50
2022/11/29 21:02:16;;;;;;;81.15;55.90;;;16.20;69.80;;;;;;4997560;27;87156;-50
2022/11/29 21:04:42;;;;;;;81.68;56.58;;;16.20;68.80;;;;;;5007156;27;90108;-52
2022/11/29 21:07:07;;;;;;;80.85;56.25;;;16.20;68.70;;;;;;4999782;27;89914;-57
2022/11/29 21:09:33;;;;;;;81.32;55.95;;;16.20;68.80;;;;;;4997157;27;86608;-55
2022/11/29 21:11:59;;;;;;;81.78;56.72;;;16.20;68.60;;;;;;5001477;27;91356;-52
2022/11/29 21:14:25;;;;;;;79.47;56.45;;;16.20;68.60;;;;;;4993899;27;85621;-53
2022/11/29 21:16:51;;;;;;;81.40;56.10;;;16.30;68.60;;;;;;4999610;27;86454;-53
2022/11/29 21:19:23;;;;;;;80.47;55.88;;;16.30;68.40;;;;;;5005958;27;86698;-55
2022/11/29 21:22:11;;;;;;;80.25;55.90;;;16.30;68.40;;;;;;5001342;27;89157;-57
2022/11/29 21:24:44;;;;;;;79.00;55.78;;;16.30;68.40;;;;;;5004253;28;85361;-55
2022/11/29 21:27:16;;;;;;;78.82;56.40;;;16.30;68.30;;;;;;4999386;27;88268;-56
2022/11/29 21:29:42;;;;;;;79.32;55.42;;;16.30;68.20;;;;;;5001919;27;85078;-55
2022/11/29 21:32:20;;;;;;;78.28;55.95;;;16.30;68.30;;;;;;5001226;27;88885;-56
2022/11/29 21:34:46;;;;;;;80.03;55.67;;;16.20;67.90;;;;;;5005248;27;86425;-50
2022/11/29 21:37:12;;;;;;;79.30;55.88;;;16.20;68.10;;;;;;4994069;27;87446;-52